sensor_id;sensor_type;location;lat;lon;timestamp;pressure;altitude;pressure_sealevel;temperature;humidity
50684;BME280;36654;45.042;38.994;2023-12-20T00:01:29;101874.94;;;8.30;99.51
50684;BME280;36654;45.042;38.994;2023-12-20T00:03:54;101871.50;;;8.31;99.10
50684;BME280;36654;45.042;38.994;2023-12-20T00:06:20;101867.75;;;8.26;98.89
50684;BME280;36654;45.042;38.994;2023-12-20T00:08:46;101877.41;;;8.26;98.72
50684;BME280;36654;45.042;38.994;2023-12-20T00:11:11;101875.06;;;8.33;98.55
50684;BME280;36654;45.042;38.994;2023-12-20T00:13:37;101881.31;;;8.35;98.18
50684;BME280;36654;45.042;38.994;2023-12-20T00:16:03;101856.09;;;8.21;97.98
50684;BME280;36654;45.042;38.994;2023-12-20T00:18:29;101887.44;;;8.34;97.64
50684;BME280;36654;45.042;38.994;2023-12-20T00:20:54;101867.88;;;8.29;97.34
50684;BME280;36654;45.042;38.994;2023-12-20T00:23:20;101883.16;;;8.38;96.92
50684;BME280;36654;45.042;38.994;2023-12-20T00:25:46;101883.16;;;8.38;96.60
50684;BME280;36654;45.042;38.994;2023-12-20T00:28:12;101892.16;;;8.41;96.49
50684;BME280;36654;45.042;38.994;2023-12-20T00:30:38;101885.91;;;8.39;95.80
50684;BME280;36654;45.042;38.994;2023-12-20T00:33:03;101887.00;;;8.45;96.02
50684;BME280;36654;45.042;38.994;2023-12-20T00:35:29;101887.00;;;8.45;95.57
50684;BME280;36654;45.042;38.994;2023-12-20T00:37:55;101880.84;;;8.46;95.20
50684;BME280;36654;45.042;38.994;2023-12-20T00:40:20;101888.94;;;8.49;95.15
50684;BME280;36654;45.042;38.994;2023-12-20T00:42:46;101878.28;;;8.47;94.57
50684;BME280;36654;45.042;38.994;2023-12-20T00:45:12;101873.81;;;8.46;94.36
50684;BME280;36654;45.042;38.994;2023-12-20T00:47:38;101882.78;;;8.50;94.08
50684;BME280;36654;45.042;38.994;2023-12-20T00:50:04;101872.94;;;8.46;94.08
50684;BME280;36654;45.042;38.994;2023-12-20T00:52:30;101877.50;;;8.50;93.81
50684;BME280;36654;45.042;38.994;2023-12-20T00:54:55;101866.94;;;8.50;93.79
50684;BME280;36654;45.042;38.994;2023-12-20T00:57:21;101872.44;;;8.56;93.87
50684;BME280;36654;45.042;38.994;2023-12-20T00:59:46;101869.75;;;8.54;93.21
50684;BME280;36654;45.042;38.994;2023-12-20T01:02:12;101824.53;;;8.24;92.99
50684;BME280;36654;45.042;38.994;2023-12-20T01:04:38;101863.72;;;8.58;92.73
50684;BME280;36654;45.042;38.994;2023-12-20T01:07:03;101863.66;;;8.57;92.16
50684;BME280;36654;45.042;38.994;2023-12-20T01:09:29;101872.56;;;8.59;92.10
50684;BME280;36654;45.042;38.994;2023-12-20T01:11:55;101862.00;;;8.59;91.77
50684;BME280;36654;45.042;38.994;2023-12-20T01:14:20;101864.50;;;8.56;91.65
50684;BME280;36654;45.042;38.994;2023-12-20T01:16:46;101853.09;;;8.57;91.32
50684;BME280;36654;45.042;38.994;2023-12-20T01:19:13;101860.41;;;8.64;91.24
50684;BME280;36654;45.042;38.994;2023-12-20T01:21:39;101848.72;;;8.57;91.02
50684;BME280;36654;45.042;38.994;2023-12-20T01:24:05;101856.81;;;8.62;90.92
50684;BME280;36654;45.042;38.994;2023-12-20T01:26:31;101858.94;;;8.72;90.29
50684;BME280;36654;45.042;38.994;2023-12-20T01:28:57;101847.22;;;8.66;90.13
50684;BME280;36654;45.042;38.994;2023-12-20T01:31:22;101863.50;;;8.76;89.92
50684;BME280;36654;45.042;38.994;2023-12-20T01:33:48;101808.69;;;8.47;89.67
50684;BME280;36654;45.042;38.994;2023-12-20T01:36:14;101874.97;;;8.77;89.60
50684;BME280;36654;45.042;38.994;2023-12-20T01:38:40;101872.38;;;8.78;89.53
50684;BME280;36654;45.042;38.994;2023-12-20T01:41:05;101848.13;;;8.66;89.40
50684;BME280;36654;45.042;38.994;2023-12-20T01:43:31;101875.03;;;8.78;89.36
50684;BME280;36654;45.042;38.994;2023-12-20T01:46:00;101861.78;;;8.78;88.69
50684;BME280;36654;45.042;38.994;2023-12-20T01:48:27;101868.94;;;8.81;88.68
50684;BME280;36654;45.042;38.994;2023-12-20T01:50:54;101860.19;;;8.82;88.33
50684;BME280;36654;45.042;38.994;2023-12-20T01:53:21;101861.06;;;8.82;88.00
50684;BME280;36654;45.042;38.994;2023-12-20T01:55:50;101858.38;;;8.81;87.69
50684;BME280;36654;45.042;38.994;2023-12-20T01:58:18;101861.97;;;8.83;87.85
50684;BME280;36654;45.042;38.994;2023-12-20T02:00:44;101859.41;;;8.84;87.81
50684;BME280;36654;45.042;38.994;2023-12-20T02:03:10;101853.75;;;8.75;87.75
50684;BME280;36654;45.042;38.994;2023-12-20T02:05:38;101863.78;;;8.84;87.91
50684;BME280;36654;45.042;38.994;2023-12-20T02:08:04;101862.88;;;8.83;88.21
50684;BME280;36654;45.042;38.994;2023-12-20T02:10:31;101798.09;;;8.47;88.04
50684;BME280;36654;45.042;38.994;2023-12-20T02:12:57;101841.41;;;8.74;88.20
50684;BME280;36654;45.042;38.994;2023-12-20T02:15:23;101859.28;;;8.81;88.19
50684;BME280;36654;45.042;38.994;2023-12-20T02:17:49;101854.09;;;8.84;88.39
50684;BME280;36654;45.042;38.994;2023-12-20T02:20:15;101784.81;;;8.45;87.86
50684;BME280;36654;45.042;38.994;2023-12-20T02:22:40;101854.94;;;8.83;87.65
50684;BME280;36654;45.042;38.994;2023-12-20T02:25:06;101843.28;;;8.78;87.53
50684;BME280;36654;45.042;38.994;2023-12-20T02:27:34;101854.09;;;8.84;87.38
50684;BME280;36654;45.042;38.994;2023-12-20T02:30:00;101855.06;;;8.87;87.31
50684;BME280;36654;45.042;38.994;2023-12-20T02:32:26;101847.13;;;8.87;87.03
50684;BME280;36654;45.042;38.994;2023-12-20T02:34:53;101843.56;;;8.86;86.74
50684;BME280;36654;45.042;38.994;2023-12-20T02:37:18;101831.13;;;8.83;86.50
50684;BME280;36654;45.042;38.994;2023-12-20T02:39:44;101844.53;;;8.88;86.14
50684;BME280;36654;45.042;38.994;2023-12-20T02:42:10;101840.25;;;8.92;85.69
50684;BME280;36654;45.042;38.994;2023-12-20T02:44:35;101837.66;;;8.93;85.07
50684;BME280;36654;45.042;38.994;2023-12-20T02:47:02;101841.72;;;8.83;84.12
50684;BME280;36654;45.042;38.994;2023-12-20T02:49:28;101843.53;;;8.84;84.36
50684;BME280;36654;45.042;38.994;2023-12-20T02:51:53;101857.72;;;8.87;84.04
50684;BME280;36654;45.042;38.994;2023-12-20T02:54:19;101837.22;;;8.81;83.99
50684;BME280;36654;45.042;38.994;2023-12-20T02:56:45;101849.72;;;8.85;83.45
50684;BME280;36654;45.042;38.994;2023-12-20T02:59:11;101854.81;;;8.80;83.40
50684;BME280;36654;45.042;38.994;2023-12-20T03:01:42;101850.28;;;8.76;83.46
50684;BME280;36654;45.042;38.994;2023-12-20T03:04:08;101856.47;;;8.77;83.64
50684;BME280;36654;45.042;38.994;2023-12-20T03:06:33;101837.53;;;8.64;83.84
50684;BME280;36654;45.042;38.994;2023-12-20T03:08:59;101861.66;;;8.74;83.63
50684;BME280;36654;45.042;38.994;2023-12-20T03:11:28;101853.31;;;8.63;83.58
50684;BME280;36654;45.042;38.994;2023-12-20T03:13:54;101854.38;;;8.68;83.51
50684;BME280;36654;45.042;38.994;2023-12-20T03:16:19;101853.41;;;8.66;83.85
50684;BME280;36654;45.042;38.994;2023-12-20T03:18:45;101868.34;;;8.64;83.72
50684;BME280;36654;45.042;38.994;2023-12-20T03:21:11;101862.09;;;8.62;83.89
50684;BME280;36654;45.042;38.994;2023-12-20T03:23:36;101847.53;;;8.49;83.93
50684;BME280;36654;45.042;38.994;2023-12-20T03:26:02;101848.53;;;8.53;83.99
50684;BME280;36654;45.042;38.994;2023-12-20T03:28:29;101864.56;;;8.57;84.07
50684;BME280;36654;45.042;38.994;2023-12-20T03:30:55;101858.38;;;8.57;84.21
50684;BME280;36654;45.042;38.994;2023-12-20T03:33:21;101862.78;;;8.56;84.38
50684;BME280;36654;45.042;38.994;2023-12-20T03:35:46;101859.06;;;8.51;84.17
50684;BME280;36654;45.042;38.994;2023-12-20T03:38:12;101860.84;;;8.52;84.11
50684;BME280;36654;45.042;38.994;2023-12-20T03:40:37;101863.44;;;8.51;84.28
50684;BME280;36654;45.042;38.994;2023-12-20T03:43:03;101859.84;;;8.49;84.48
50684;BME280;36654;45.042;38.994;2023-12-20T03:45:29;101863.31;;;8.48;84.51
50684;BME280;36654;45.042;38.994;2023-12-20T03:47:54;101810.13;;;8.16;84.62
50684;BME280;36654;45.042;38.994;2023-12-20T03:50:25;101861.53;;;8.47;84.44
50684;BME280;36654;45.042;38.994;2023-12-20T03:52:51;101845.22;;;8.36;84.30
50684;BME280;36654;45.042;38.994;2023-12-20T03:55:17;101867.53;;;8.42;84.35
50684;BME280;36654;45.042;38.994;2023-12-20T03:57:42;101866.56;;;8.40;84.14
50684;BME280;36654;45.042;38.994;2023-12-20T04:00:09;101869.91;;;8.36;84.41
50684;BME280;36654;45.042;38.994;2023-12-20T04:02:37;101865.53;;;8.37;84.04
50684;BME280;36654;45.042;38.994;2023-12-20T04:05:02;101871.72;;;8.37;84.39
50684;BME280;36654;45.042;38.994;2023-12-20T04:07:28;101859.22;;;8.33;84.48
50684;BME280;36654;45.042;38.994;2023-12-20T04:09:55;101880.50;;;8.36;84.12
50684;BME280;36654;45.042;38.994;2023-12-20T04:12:20;101823.09;;;8.10;84.06
50684;BME280;36654;45.042;38.994;2023-12-20T04:14:46;101871.59;;;8.34;83.87
50684;BME280;36654;45.042;38.994;2023-12-20T04:17:12;101854.78;;;8.32;83.85
50684;BME280;36654;45.042;38.994;2023-12-20T04:19:37;101861.13;;;8.37;83.92
50684;BME280;36654;45.042;38.994;2023-12-20T04:22:03;101857.31;;;8.29;83.71
50684;BME280;36654;45.042;38.994;2023-12-20T04:24:29;101859.34;;;8.36;84.13
50684;BME280;36654;45.042;38.994;2023-12-20T04:26:54;101851.28;;;8.33;84.28
50684;BME280;36654;45.042;38.994;2023-12-20T04:29:20;101855.78;;;8.36;84.13
50684;BME280;36654;45.042;38.994;2023-12-20T04:31:45;101869.00;;;8.36;84.10
50684;BME280;36654;45.042;38.994;2023-12-20T04:34:11;101871.59;;;8.34;84.24
50684;BME280;36654;45.042;38.994;2023-12-20T04:36:37;101862.72;;;8.32;83.91
50684;BME280;36654;45.042;38.994;2023-12-20T04:39:02;101863.56;;;8.31;84.00
50684;BME280;36654;45.042;38.994;2023-12-20T04:41:28;101867.03;;;8.30;83.92
50684;BME280;36654;45.042;38.994;2023-12-20T04:43:54;101876.78;;;8.31;83.85
50684;BME280;36654;45.042;38.994;2023-12-20T04:46:19;101870.53;;;8.29;83.88
50684;BME280;36654;45.042;38.994;2023-12-20T04:48:45;101810.38;;;7.99;83.76
50684;BME280;36654;45.042;38.994;2023-12-20T04:51:10;101865.28;;;8.31;83.81
50684;BME280;36654;45.042;38.994;2023-12-20T04:53:36;101869.91;;;8.36;84.06
50684;BME280;36654;45.042;38.994;2023-12-20T04:56:02;101864.78;;;8.39;83.91
50684;BME280;36654;45.042;38.994;2023-12-20T04:58:28;101861.28;;;8.40;83.70
50684;BME280;36654;45.042;38.994;2023-12-20T05:00:53;101818.03;;;8.16;83.25
50684;BME280;36654;45.042;38.994;2023-12-20T05:03:19;101863.09;;;8.41;83.06
50684;BME280;36654;45.042;38.994;2023-12-20T05:05:45;101863.09;;;8.41;82.95
50684;BME280;36654;45.042;38.994;2023-12-20T05:08:10;101855.75;;;8.34;83.22
50684;BME280;36654;45.042;38.994;2023-12-20T05:10:36;101863.84;;;8.39;83.13
50684;BME280;36654;45.042;38.994;2023-12-20T05:13:02;101879.06;;;8.45;83.44
50684;BME280;36654;45.042;38.994;2023-12-20T05:15:27;101876.41;;;8.45;83.59
50684;BME280;36654;45.042;38.994;2023-12-20T05:17:53;101875.56;;;8.46;83.41
50684;BME280;36654;45.042;38.994;2023-12-20T05:20:19;101870.44;;;8.49;83.27
50684;BME280;36654;45.042;38.994;2023-12-20T05:22:44;101876.63;;;8.51;82.93
50684;BME280;36654;45.042;38.994;2023-12-20T05:25:10;101879.41;;;8.54;82.60
50684;BME280;36654;45.042;38.994;2023-12-20T05:27:36;101900.69;;;8.57;82.58
50684;BME280;36654;45.042;38.994;2023-12-20T05:30:02;101878.47;;;8.52;82.61
50684;BME280;36654;45.042;38.994;2023-12-20T05:32:29;101891.88;;;8.58;82.69
50684;BME280;36654;45.042;38.994;2023-12-20T05:34:55;101886.72;;;8.61;82.51
50684;BME280;36654;45.042;38.994;2023-12-20T05:37:21;101879.63;;;8.60;82.54
50684;BME280;36654;45.042;38.994;2023-12-20T05:39:46;101884.25;;;8.66;82.40
50684;BME280;36654;45.042;38.994;2023-12-20T05:42:12;101874.34;;;8.60;82.50
50684;BME280;36654;45.042;38.994;2023-12-20T05:44:37;101862.78;;;8.56;82.43
50684;BME280;36654;45.042;38.994;2023-12-20T05:47:03;101856.47;;;8.53;82.27
50684;BME280;36654;45.042;38.994;2023-12-20T05:49:29;101888.09;;;8.74;82.43
50684;BME280;36654;45.042;38.994;2023-12-20T05:51:55;101885.50;;;8.75;82.10
50684;BME280;36654;45.042;38.994;2023-12-20T05:54:20;101863.88;;;8.63;82.34
50684;BME280;36654;45.042;38.994;2023-12-20T05:56:46;101876.59;;;8.73;82.17
50684;BME280;36654;45.042;38.994;2023-12-20T05:59:12;101882.13;;;8.79;82.25
50684;BME280;36654;45.042;38.994;2023-12-20T06:01:39;101877.81;;;8.81;82.02
50684;BME280;36654;45.042;38.994;2023-12-20T06:04:05;101828.34;;;8.55;81.99
50684;BME280;36654;45.042;38.994;2023-12-20T06:06:30;101872.63;;;8.84;81.73
50684;BME280;36654;45.042;38.994;2023-12-20T06:08:56;101842.75;;;8.63;81.79
50684;BME280;36654;45.042;38.994;2023-12-20T06:11:23;101884.97;;;8.85;81.78
50684;BME280;36654;45.042;38.994;2023-12-20T06:13:49;101877.19;;;8.89;81.91
50684;BME280;36654;45.042;38.994;2023-12-20T06:16:18;101864.69;;;8.84;81.89
50684;BME280;36654;45.042;38.994;2023-12-20T06:18:43;101858.59;;;8.87;81.74
50684;BME280;36654;45.042;38.994;2023-12-20T06:21:09;101867.66;;;8.94;81.85
50684;BME280;36654;45.042;38.994;2023-12-20T06:23:38;101867.94;;;9.01;81.75
50684;BME280;36654;45.042;38.994;2023-12-20T06:26:04;101861.97;;;9.07;81.62
50684;BME280;36654;45.042;38.994;2023-12-20T06:28:29;101879.75;;;9.11;81.56
50684;BME280;36654;45.042;38.994;2023-12-20T06:30:55;101866.53;;;9.11;81.85
50684;BME280;36654;45.042;38.994;2023-12-20T06:33:22;101867.50;;;9.15;81.80
50684;BME280;36654;45.042;38.994;2023-12-20T06:35:48;101881.63;;;9.15;81.57
50684;BME280;36654;45.042;38.994;2023-12-20T06:38:14;101882.53;;;9.16;81.89
50684;BME280;36654;45.042;38.994;2023-12-20T06:40:40;101854.03;;;9.07;82.05
50684;BME280;36654;45.042;38.994;2023-12-20T06:43:05;101864.19;;;9.20;81.98
50684;BME280;36654;45.042;38.994;2023-12-20T06:45:32;101872.22;;;9.23;82.26
50684;BME280;36654;45.042;38.994;2023-12-20T06:47:58;101819.63;;;9.07;82.28
50684;BME280;36654;45.042;38.994;2023-12-20T06:50:24;101875.28;;;9.36;82.39
50684;BME280;36654;45.042;38.994;2023-12-20T06:52:49;101864.75;;;9.37;82.34
50684;BME280;36654;45.042;38.994;2023-12-20T06:55:15;101875.50;;;9.42;82.47
50684;BME280;36654;45.042;38.994;2023-12-20T06:57:42;101816.53;;;9.19;82.39
50684;BME280;36654;45.042;38.994;2023-12-20T07:00:08;101828.16;;;9.24;82.57
50684;BME280;36654;45.042;38.994;2023-12-20T07:02:36;101866.59;;;9.40;82.64
50684;BME280;36654;45.042;38.994;2023-12-20T07:05:01;101864.06;;;9.43;82.71
50684;BME280;36654;45.042;38.994;2023-12-20T07:07:27;101827.94;;;9.18;82.73
50684;BME280;36654;45.042;38.994;2023-12-20T07:09:53;101866.72;;;9.43;82.91
50684;BME280;36654;45.042;38.994;2023-12-20T07:12:19;101877.63;;;9.52;82.70
50684;BME280;36654;45.042;38.994;2023-12-20T07:14:45;101868.72;;;9.50;82.67
50684;BME280;36654;45.042;38.994;2023-12-20T07:17:11;101852.75;;;9.47;82.96
50684;BME280;36654;45.042;38.994;2023-12-20T07:19:39;101876.22;;;9.63;83.09
50684;BME280;36654;45.042;38.994;2023-12-20T07:22:06;101859.75;;;9.72;83.04
50684;BME280;36654;45.042;38.994;2023-12-20T07:24:32;101858.19;;;9.79;83.04
50684;BME280;36654;45.042;38.994;2023-12-20T07:26:59;101844.25;;;9.84;83.15
50684;BME280;36654;45.042;38.994;2023-12-20T07:29:25;101802.19;;;9.66;82.59
50684;BME280;36654;45.042;38.994;2023-12-20T07:31:51;101848.25;;;9.99;82.52
50684;BME280;36654;45.042;38.994;2023-12-20T07:34:18;101835.56;;;9.88;82.29
50684;BME280;36654;45.042;38.994;2023-12-20T07:36:44;101849.03;;;9.96;82.25
50684;BME280;36654;45.042;38.994;2023-12-20T07:39:10;101852.28;;;9.87;82.25
50684;BME280;36654;45.042;38.994;2023-12-20T07:41:36;101850.75;;;9.94;82.29
50684;BME280;36654;45.042;38.994;2023-12-20T07:44:01;101853.38;;;9.94;82.30
50684;BME280;36654;45.042;38.994;2023-12-20T07:46:27;101849.03;;;9.96;82.55
50684;BME280;36654;45.042;38.994;2023-12-20T07:48:52;101847.44;;;10.01;82.59
50684;BME280;36654;45.042;38.994;2023-12-20T07:51:18;101807.09;;;9.81;82.46
50684;BME280;36654;45.042;38.994;2023-12-20T07:53:44;101837.81;;;10.05;82.39
50684;BME280;36654;45.042;38.994;2023-12-20T07:56:16;101836.13;;;10.07;82.27
50684;BME280;36654;45.042;38.994;2023-12-20T07:58:42;101833.53;;;10.08;82.38
50684;BME280;36654;45.042;38.994;2023-12-20T08:01:08;101797.56;;;9.88;82.04
50684;BME280;36654;45.042;38.994;2023-12-20T08:03:34;101821.03;;;10.04;81.96
50684;BME280;36654;45.042;38.994;2023-12-20T08:05:59;101818.41;;;10.06;81.91
50684;BME280;36654;45.042;38.994;2023-12-20T08:08:25;101823.75;;;10.07;81.96
50684;BME280;36654;45.042;38.994;2023-12-20T08:10:51;101816.81;;;10.11;81.98
50684;BME280;36654;45.042;38.994;2023-12-20T08:13:17;101815.16;;;10.14;81.82
50684;BME280;36654;45.042;38.994;2023-12-20T08:15:42;101808.25;;;10.20;81.66
50684;BME280;36654;45.042;38.994;2023-12-20T08:18:08;101792.34;;;10.20;81.64
50684;BME280;36654;45.042;38.994;2023-12-20T08:20:34;101769.34;;;10.19;81.37
50684;BME280;36654;45.042;38.994;2023-12-20T08:22:59;101797.38;;;10.39;80.96
50684;BME280;36654;45.042;38.994;2023-12-20T08:25:26;101794.78;;;10.42;80.68
50684;BME280;36654;45.042;38.994;2023-12-20T08:27:52;101796.91;;;10.54;80.72
50684;BME280;36654;45.042;38.994;2023-12-20T08:30:18;101766.59;;;10.46;80.46
50684;BME280;36654;45.042;38.994;2023-12-20T08:32:48;101778.56;;;10.62;79.95
50684;BME280;36654;45.042;38.994;2023-12-20T08:35:13;101736.47;;;10.42;79.92
50684;BME280;36654;45.042;38.994;2023-12-20T08:37:39;101748.38;;;10.56;79.76
50684;BME280;36654;45.042;38.994;2023-12-20T08:40:05;101725.25;;;10.52;79.31
50684;BME280;36654;45.042;38.994;2023-12-20T08:42:31;101758.50;;;10.73;79.12
50684;BME280;36654;45.042;38.994;2023-12-20T08:44:57;101759.44;;;10.75;79.11
50684;BME280;36654;45.042;38.994;2023-12-20T08:47:26;101755.16;;;10.80;79.05
50684;BME280;36654;45.042;38.994;2023-12-20T08:49:52;101754.41;;;10.84;79.20
50684;BME280;36654;45.042;38.994;2023-12-20T08:52:23;101742.09;;;10.88;79.09
50684;BME280;36654;45.042;38.994;2023-12-20T08:54:52;101703.50;;;10.66;79.12
50684;BME280;36654;45.042;38.994;2023-12-20T08:57:21;101744.00;;;10.92;78.90
50684;BME280;36654;45.042;38.994;2023-12-20T08:59:49;101719.13;;;10.88;78.54
50684;BME280;36654;45.042;38.994;2023-12-20T09:02:16;101705.97;;;10.93;78.27
50684;BME280;36654;45.042;38.994;2023-12-20T09:04:42;101708.09;;;11.06;78.17
50684;BME280;36654;45.042;38.994;2023-12-20T09:07:23;101712.59;;;11.09;77.99
50684;BME280;36654;45.042;38.994;2023-12-20T09:09:49;101714.44;;;11.13;77.81
50684;BME280;36654;45.042;38.994;2023-12-20T09:12:15;101702.84;;;11.09;77.58
50684;BME280;36654;45.042;38.994;2023-12-20T09:14:41;101704.88;;;11.19;77.27
50684;BME280;36654;45.042;38.994;2023-12-20T09:17:06;101701.47;;;11.25;77.21
50684;BME280;36654;45.042;38.994;2023-12-20T09:19:34;101691.03;;;11.33;76.74
50684;BME280;36654;45.042;38.994;2023-12-20T09:22:00;101695.50;;;11.35;76.55
50684;BME280;36654;45.042;38.994;2023-12-20T09:24:27;101686.63;;;11.33;76.20
50684;BME280;36654;45.042;38.994;2023-12-20T09:26:52;101689.34;;;11.36;76.21
50684;BME280;36654;45.042;38.994;2023-12-20T09:29:18;101682.38;;;11.41;76.50
50684;BME280;36654;45.042;38.994;2023-12-20T09:31:44;101663.81;;;11.41;76.47
50684;BME280;36654;45.042;38.994;2023-12-20T09:34:11;101669.44;;;11.57;74.51
50684;BME280;36654;45.042;38.994;2023-12-20T09:36:37;101671.31;;;11.61;74.22
50684;BME280;36654;45.042;38.994;2023-12-20T09:39:06;101622.97;;;11.36;73.76
50684;BME280;36654;45.042;38.994;2023-12-20T09:41:36;101669.56;;;11.61;73.76
50684;BME280;36654;45.042;38.994;2023-12-20T09:44:03;101632.88;;;11.43;73.63
50684;BME280;36654;45.042;38.994;2023-12-20T09:46:29;101652.63;;;11.56;73.50
50684;BME280;36654;45.042;38.994;2023-12-20T09:49:00;101603.31;;;11.28;73.36
50684;BME280;36654;45.042;38.994;2023-12-20T09:51:28;101660.69;;;11.61;73.32
50684;BME280;36654;45.042;38.994;2023-12-20T09:53:54;101650.97;;;11.63;73.41
50684;BME280;36654;45.042;38.994;2023-12-20T09:56:23;101634.97;;;11.58;72.95
50684;BME280;36654;45.042;38.994;2023-12-20T09:58:49;101641.28;;;11.65;72.64
50684;BME280;36654;45.042;38.994;2023-12-20T10:01:15;101648.41;;;11.66;72.14
50684;BME280;36654;45.042;38.994;2023-12-20T10:03:41;101621.59;;;11.54;72.30
50684;BME280;36654;45.042;38.994;2023-12-20T10:06:07;101612.47;;;11.42;72.19
50684;BME280;36654;45.042;38.994;2023-12-20T10:08:34;101571.41;;;11.25;72.30
50684;BME280;36654;45.042;38.994;2023-12-20T10:11:00;101576.91;;;11.34;72.32
50684;BME280;36654;45.042;38.994;2023-12-20T10:13:28;101634.19;;;11.64;71.93
50684;BME280;36654;45.042;38.994;2023-12-20T10:15:55;101622.75;;;11.68;71.42
50684;BME280;36654;45.042;38.994;2023-12-20T10:18:21;101625.41;;;11.68;71.03
50684;BME280;36654;45.042;38.994;2023-12-20T10:20:46;101618.38;;;11.70;70.43
50684;BME280;36654;45.042;38.994;2023-12-20T10:23:13;101605.88;;;11.64;69.64
50684;BME280;36654;45.042;38.994;2023-12-20T10:25:40;101609.56;;;11.73;69.67
50684;BME280;36654;45.042;38.994;2023-12-20T10:28:15;101624.75;;;11.78;68.67
50684;BME280;36654;45.042;38.994;2023-12-20T10:30:44;101615.81;;;11.75;69.26
50684;BME280;36654;45.042;38.994;2023-12-20T10:33:10;101629.19;;;11.79;69.31
50684;BME280;36654;45.042;38.994;2023-12-20T10:35:37;101604.50;;;11.85;69.00
50684;BME280;36654;45.042;38.994;2023-12-20T10:38:04;101609.91;;;11.86;68.34
50684;BME280;36654;45.042;38.994;2023-12-20T10:40:31;101589.44;;;11.85;68.61
50684;BME280;36654;45.042;38.994;2023-12-20T10:42:58;101586.03;;;11.90;68.71
50684;BME280;36654;45.042;38.994;2023-12-20T10:45:25;101590.56;;;11.94;68.20
50684;BME280;36654;45.042;38.994;2023-12-20T10:47:51;101581.66;;;11.92;67.78
50684;BME280;36654;45.042;38.994;2023-12-20T10:50:19;101541.34;;;11.69;67.57
50684;BME280;36654;45.042;38.994;2023-12-20T10:52:45;101569.28;;;11.94;67.47
50684;BME280;36654;45.042;38.994;2023-12-20T10:55:12;101572.81;;;11.93;67.13
50684;BME280;36654;45.042;38.994;2023-12-20T10:57:38;101575.50;;;11.94;67.22
50684;BME280;36654;45.042;38.994;2023-12-20T11:00:06;101562.25;;;11.96;67.28
50684;BME280;36654;45.042;38.994;2023-12-20T11:02:39;101563.97;;;11.94;66.82
50684;BME280;36654;45.042;38.994;2023-12-20T11:05:14;101555.25;;;12.01;66.87
50684;BME280;36654;45.042;38.994;2023-12-20T11:07:58;101546.31;;;11.96;66.51
50684;BME280;36654;45.042;38.994;2023-12-20T11:10:39;101536.72;;;12.04;66.40
50684;BME280;36654;45.042;38.994;2023-12-20T11:13:16;101472.78;;;11.49;66.55
50684;BME280;36654;45.042;38.994;2023-12-20T11:15:43;101564.13;;;12.03;67.15
50684;BME280;36654;45.042;38.994;2023-12-20T11:18:09;101521.22;;;11.81;66.82
50684;BME280;36654;45.042;38.994;2023-12-20T11:20:37;101546.53;;;12.09;66.35
50684;BME280;36654;45.042;38.994;2023-12-20T11:23:03;101553.69;;;12.12;66.45
50684;BME280;36654;45.042;38.994;2023-12-20T11:25:29;101558.16;;;12.15;65.94
50684;BME280;36654;45.042;38.994;2023-12-20T11:28:09;101498.31;;;11.86;65.77
50684;BME280;36654;45.042;38.994;2023-12-20T11:30:57;101555.53;;;12.16;65.86
50684;BME280;36654;45.042;38.994;2023-12-20T11:33:27;101550.22;;;12.16;65.46
50684;BME280;36654;45.042;38.994;2023-12-20T11:35:58;101531.56;;;12.13;64.34
50684;BME280;36654;45.042;38.994;2023-12-20T11:38:25;101539.59;;;12.16;63.41
50684;BME280;36654;45.042;38.994;2023-12-20T11:40:53;101537.91;;;12.21;63.43
50684;BME280;36654;45.042;38.994;2023-12-20T11:43:39;101544.09;;;12.22;63.33
50684;BME280;36654;45.042;38.994;2023-12-20T11:46:05;101552.03;;;12.20;63.74
50684;BME280;36654;45.042;38.994;2023-12-20T11:48:33;101525.38;;;12.14;64.01
50684;BME280;36654;45.042;38.994;2023-12-20T11:50:59;101544.19;;;12.28;63.61
50684;BME280;36654;45.042;38.994;2023-12-20T11:53:25;101543.31;;;12.27;63.15
50684;BME280;36654;45.042;38.994;2023-12-20T11:55:51;101527.22;;;12.18;62.74
50684;BME280;36654;45.042;38.994;2023-12-20T11:58:17;101546.88;;;12.29;62.64
50684;BME280;36654;45.042;38.994;2023-12-20T12:00:43;101533.50;;;12.25;62.35
50684;BME280;36654;45.042;38.994;2023-12-20T12:03:09;101541.56;;;12.29;62.32
50684;BME280;36654;45.042;38.994;2023-12-20T12:05:35;101535.44;;;12.34;61.70
50684;BME280;36654;45.042;38.994;2023-12-20T12:08:02;101526.53;;;12.32;61.29
50684;BME280;36654;45.042;38.994;2023-12-20T12:10:29;101524.78;;;12.32;61.70
50684;BME280;36654;45.042;38.994;2023-12-20T12:12:55;101528.41;;;12.36;61.93
50684;BME280;36654;45.042;38.994;2023-12-20T12:15:21;101533.72;;;12.36;61.72
50684;BME280;36654;45.042;38.994;2023-12-20T12:17:53;101534.59;;;12.38;61.46
50684;BME280;36654;45.042;38.994;2023-12-20T12:20:20;101523.09;;;12.37;61.54
50684;BME280;36654;45.042;38.994;2023-12-20T12:22:46;101526.59;;;12.33;60.96
50684;BME280;36654;45.042;38.994;2023-12-20T12:25:16;101523.84;;;12.30;61.08
50684;BME280;36654;45.042;38.994;2023-12-20T12:27:42;101462.22;;;11.99;61.07
50684;BME280;36654;45.042;38.994;2023-12-20T12:30:09;101511.44;;;12.29;61.36
50684;BME280;36654;45.042;38.994;2023-12-20T12:32:36;101455.25;;;12.06;61.19
50684;BME280;36654;45.042;38.994;2023-12-20T12:35:05;101515.00;;;12.29;61.35
50684;BME280;36654;45.042;38.994;2023-12-20T12:37:36;101495.38;;;12.21;61.39
50684;BME280;36654;45.042;38.994;2023-12-20T12:40:05;101512.38;;;12.33;61.80
50684;BME280;36654;45.042;38.994;2023-12-20T12:42:31;101511.53;;;12.34;62.04